createdAt,value
2022-09-07T00:00:39.843Z,7.13
2022-09-07T00:03:07.001Z,7.18
2022-09-07T00:05:33.833Z,6.80
2022-09-07T00:08:00.700Z,6.20
2022-09-07T00:10:27.129Z,6.47
2022-09-07T00:12:53.465Z,6.05
2022-09-07T00:15:20.030Z,5.68
2022-09-07T00:17:46.364Z,5.93
2022-09-07T00:20:12.748Z,5.65
2022-09-07T00:22:39.282Z,4.93
2022-09-07T00:25:06.226Z,4.85
2022-09-07T00:27:32.606Z,5.72
2022-09-07T00:29:58.978Z,5.68
2022-09-07T00:32:25.331Z,4.90
2022-09-07T00:34:51.689Z,5.20
2022-09-07T00:37:18.032Z,5.13
2022-09-07T00:39:44.425Z,4.70
2022-09-07T00:42:10.798Z,5.22
2022-09-07T00:44:43.220Z,5.05
2022-09-07T00:47:19.232Z,5.25
2022-09-07T00:49:50.015Z,4.72
2022-09-07T00:52:18.908Z,4.78
2022-09-07T00:54:49.116Z,4.75
2022-09-07T00:57:15.610Z,5.30
2022-09-07T00:59:50.166Z,4.50
2022-09-07T01:02:17.455Z,4.93
2022-09-07T01:04:48.286Z,4.30
2022-09-07T01:07:14.755Z,4.28
2022-09-07T01:09:41.425Z,4.78
2022-09-07T01:12:08.521Z,4.95
2022-09-07T01:14:39.870Z,4.72
2022-09-07T01:17:12.070Z,4.85
2022-09-07T01:20:02.271Z,4.38
2022-09-07T01:22:47.315Z,4.03
2022-09-07T01:28:16.639Z,4.53
2022-09-07T01:30:55.030Z,4.65
2022-09-07T01:33:29.099Z,4.55
2022-09-07T01:36:03.661Z,5.00
2022-09-07T01:38:45.929Z,4.68
2022-09-07T01:41:28.016Z,4.28
2022-09-07T01:44:07.525Z,4.32
2022-09-07T01:46:40.002Z,5.28
2022-09-07T01:49:12.174Z,4.68
2022-09-07T01:51:44.519Z,4.68
2022-09-07T01:54:26.933Z,5.15
2022-09-07T01:56:58.325Z,4.75
2022-09-07T01:59:35.530Z,5.63
2022-09-07T02:02:09.386Z,5.68
2022-09-07T02:04:50.243Z,6.03
2022-09-07T02:07:49.042Z,5.05
2022-09-07T02:10:21.864Z,5.70
2022-09-07T02:12:59.277Z,5.75
2022-09-07T02:15:41.544Z,5.10
2022-09-07T02:18:10.494Z,6.00
2022-09-07T02:20:38.973Z,4.70
2022-09-07T02:23:20.413Z,4.97
2022-09-07T02:25:51.239Z,5.05
2022-09-07T02:28:24.404Z,3.90
2022-09-07T02:30:50.948Z,3.35
2022-09-07T02:33:17.943Z,3.55
2022-09-07T02:35:44.486Z,3.47
2022-09-07T02:38:10.888Z,3.72
2022-09-07T02:40:37.575Z,3.38
2022-09-07T02:43:08.040Z,3.78
2022-09-07T02:46:10.675Z,3.50
2022-09-07T02:49:08.222Z,3.85
2022-09-07T02:52:10.863Z,4.40
2022-09-07T02:54:58.774Z,4.45
2022-09-07T02:57:55.995Z,4.60
2022-09-07T03:00:22.515Z,4.40
2022-09-07T03:03:08.155Z,4.60
2022-09-07T03:05:55.577Z,4.90
2022-09-07T03:08:32.333Z,4.78
2022-09-07T03:10:59.509Z,4.65
2022-09-07T03:13:29.217Z,4.40
2022-09-07T03:15:57.054Z,4.65
2022-09-07T03:18:25.217Z,4.97
2022-09-07T03:20:51.643Z,5.05
2022-09-07T03:23:18.363Z,5.20
2022-09-07T03:25:44.695Z,4.82
2022-09-07T03:28:11.321Z,5.22
2022-09-07T03:30:44.783Z,5.97
2022-09-07T03:33:11.371Z,5.70
2022-09-07T03:35:37.760Z,5.68
2022-09-07T03:38:04.115Z,5.85
2022-09-07T03:40:30.442Z,5.63
2022-09-07T03:42:56.791Z,5.22
2022-09-07T03:45:23.117Z,4.72
2022-09-07T03:47:49.444Z,5.85
2022-09-07T03:50:15.908Z,5.03
2022-09-07T03:52:42.343Z,5.25
2022-09-07T03:55:08.834Z,6.00
2022-09-07T03:57:35.185Z,6.28
2022-09-07T04:00:02.427Z,6.40
2022-09-07T04:02:28.881Z,6.65
2022-09-07T04:04:55.257Z,6.40
2022-09-07T04:07:21.794Z,6.22
2022-09-07T04:09:49.598Z,6.78
2022-09-07T04:12:15.949Z,7.63
2022-09-07T04:14:42.295Z,6.43
2022-09-07T04:17:08.685Z,7.60
2022-09-07T04:19:35.057Z,7.13
2022-09-07T04:22:01.391Z,6.53
2022-09-07T04:24:27.722Z,7.00
2022-09-07T04:26:54.118Z,6.55
2022-09-07T04:29:20.465Z,7.13
2022-09-07T04:31:46.793Z,6.40
2022-09-07T04:34:14.277Z,7.25
2022-09-07T04:36:40.722Z,7.28
2022-09-07T04:39:07.075Z,6.93
2022-09-07T04:41:33.810Z,7.03
2022-09-07T04:44:01.890Z,7.03
2022-09-07T04:46:36.593Z,7.20
2022-09-07T04:49:10.925Z,7.20
2022-09-07T04:51:38.513Z,8.57
2022-09-07T04:54:05.363Z,8.10
2022-09-07T04:56:32.640Z,8.05
2022-09-07T04:59:01.378Z,8.25
2022-09-07T05:01:28.162Z,7.80
2022-09-07T05:03:54.903Z,7.07
2022-09-07T05:06:22.977Z,7.15
2022-09-07T05:08:51.629Z,7.72
2022-09-07T05:11:18.248Z,7.65
2022-09-07T05:13:44.834Z,8.05
2022-09-07T05:16:20.588Z,7.63
2022-09-07T05:18:52.257Z,6.32
2022-09-07T05:21:21.329Z,6.93
2022-09-07T05:23:52.762Z,6.93
2022-09-07T05:26:20.569Z,7.38
2022-09-07T05:28:47.071Z,8.30
2022-09-07T05:36:38.730Z,8.75
2022-09-07T05:39:06.459Z,7.25
2022-09-07T05:41:32.842Z,6.82
2022-09-07T05:46:46.234Z,7.00
2022-09-07T05:49:12.568Z,6.90
2022-09-07T05:51:38.907Z,6.47
2022-09-07T05:54:05.725Z,6.65
2022-09-07T05:56:35.933Z,7.18
2022-09-07T05:59:02.300Z,6.60
2022-09-07T06:01:28.697Z,6.30
2022-09-07T06:03:55.017Z,6.70
2022-09-07T06:06:21.452Z,5.72
2022-09-07T06:08:50.267Z,5.75
2022-09-07T06:11:19.316Z,6.60
2022-09-07T06:13:45.655Z,6.70
2022-09-07T06:16:13.483Z,6.18
2022-09-07T06:18:44.857Z,6.25
2022-09-07T06:21:13.967Z,6.18
2022-09-07T06:23:42.208Z,6.35
2022-09-07T06:26:09.371Z,6.55
2022-09-07T06:28:38.640Z,6.63
2022-09-07T06:31:10.890Z,6.88
2022-09-07T06:33:37.499Z,6.18
2022-09-07T06:36:06.529Z,6.35
2022-09-07T06:38:36.198Z,6.50
2022-09-07T06:43:55.315Z,6.82
2022-09-07T06:49:08.941Z,7.43
2022-09-07T06:51:35.309Z,7.13
2022-09-07T06:56:47.953Z,7.07
2022-09-07T06:59:14.270Z,5.93
2022-09-07T07:01:40.587Z,6.22
2022-09-07T07:04:06.977Z,6.13
2022-09-07T07:06:35.039Z,6.57
2022-09-07T07:09:02.014Z,5.88
2022-09-07T07:11:28.411Z,5.65
2022-09-07T07:13:54.743Z,5.20
2022-09-07T07:16:21.127Z,5.07
2022-09-07T07:18:47.528Z,4.43
2022-09-07T07:21:15.464Z,4.50
2022-09-07T07:23:42.304Z,4.25
2022-09-07T07:26:15.101Z,4.70
2022-09-07T07:31:25.834Z,4.85
2022-09-07T07:33:52.884Z,5.22
2022-09-07T07:36:24.694Z,5.13
2022-09-07T07:44:13.703Z,5.47
2022-09-07T07:46:40.129Z,5.15
2022-09-07T07:49:06.467Z,4.65
2022-09-07T07:52:49.829Z,3.88
2022-09-07T07:54:19.262Z,4.57
2022-09-07T07:56:45.562Z,4.80
2022-09-07T07:59:15.587Z,3.55
2022-09-07T08:01:42.258Z,3.80
2022-09-07T08:04:08.662Z,2.92
2022-09-07T08:06:34.971Z,2.67
2022-09-07T08:09:01.276Z,3.20
2022-09-07T08:11:27.589Z,3.08
2022-09-07T08:13:53.912Z,2.40
2022-09-07T08:16:20.241Z,1.88
2022-09-07T08:18:47.194Z,2.15
2022-09-07T08:21:15.077Z,2.80
2022-09-07T08:23:42.797Z,2.00
2022-09-07T08:26:09.232Z,1.92
2022-09-07T08:28:38.520Z,2.22
2022-09-07T08:31:10.174Z,1.90
2022-09-07T08:33:37.442Z,2.22
2022-09-07T08:36:06.230Z,2.08
2022-09-07T08:38:34.635Z,2.00
2022-09-07T08:41:02.833Z,2.42
2022-09-07T08:43:49.198Z,2.42
2022-09-07T08:46:26.919Z,3.10
2022-09-07T08:48:54.892Z,3.88
2022-09-07T08:51:49.280Z,2.50
2022-09-07T08:54:16.583Z,2.80
2022-09-07T08:59:46.911Z,2.70
2022-09-07T09:02:35.109Z,2.60
2022-09-07T09:05:20.117Z,2.55
2022-09-07T09:08:12.114Z,2.50
2022-09-07T09:10:50.094Z,2.35
2022-09-07T09:13:34.440Z,2.13
2022-09-07T09:16:10.211Z,2.33
2022-09-07T09:18:45.698Z,2.88
2022-09-07T09:21:15.355Z,1.95
2022-09-07T09:23:44.107Z,2.40
2022-09-07T09:26:16.479Z,1.92
2022-09-07T09:28:42.823Z,1.90
2022-09-07T09:31:28.548Z,2.28
2022-09-07T09:34:11.787Z,1.70
2022-09-07T09:36:52.520Z,2.00
2022-09-07T09:39:36.154Z,1.98
2022-09-07T09:42:11.822Z,1.95
2022-09-07T09:44:39.237Z,2.40
2022-09-07T09:49:53.602Z,1.58
2022-09-07T09:52:31.258Z,1.70
2022-09-07T09:55:23.627Z,2.00
2022-09-07T10:03:59.389Z,1.45
2022-09-07T10:06:28.434Z,1.30
2022-09-07T10:09:00.630Z,1.30
2022-09-07T10:14:41.858Z,1.40
2022-09-07T10:17:28.584Z,1.23
2022-09-07T10:20:00.818Z,1.60
2022-09-07T10:22:35.997Z,1.63
2022-09-07T10:25:54.093Z,1.70
2022-09-07T10:28:22.986Z,1.27
2022-09-07T10:31:15.017Z,1.00
2022-09-07T10:39:13.050Z,1.23
2022-09-07T10:41:54.092Z,1.05
2022-09-07T10:44:38.947Z,1.50
2022-09-07T10:47:36.319Z,1.65
2022-09-07T10:50:24.254Z,1.42
2022-09-07T10:53:42.429Z,1.90
2022-09-07T10:56:20.305Z,1.50
2022-09-07T10:59:02.858Z,1.30
2022-09-07T11:01:46.075Z,1.33
2022-09-07T11:04:26.196Z,1.77
2022-09-07T11:07:01.751Z,1.70
2022-09-07T11:09:46.114Z,1.77
2022-09-07T11:12:22.075Z,1.60
2022-09-07T11:14:55.493Z,1.50
2022-09-07T11:17:25.989Z,1.42
2022-09-07T11:20:01.764Z,1.92
2022-09-07T11:22:36.422Z,1.75
2022-09-07T11:25:30.815Z,1.65
2022-09-07T11:28:12.465Z,1.77
2022-09-07T11:31:02.684Z,2.55
2022-09-07T11:33:36.952Z,1.90
2022-09-07T11:36:12.424Z,2.38
2022-09-07T11:38:44.770Z,2.30
2022-09-07T11:41:28.532Z,1.92
2022-09-07T11:44:46.390Z,2.20
2022-09-07T11:47:51.510Z,2.28
2022-09-07T11:50:21.694Z,2.10
2022-09-07T11:52:53.951Z,1.73
2022-09-07T11:55:25.643Z,2.33
2022-09-07T11:58:27.877Z,2.10
2022-09-07T12:01:18.514Z,2.70
2022-09-07T12:04:02.266Z,2.55
2022-09-07T12:06:51.576Z,2.60
2022-09-07T12:09:30.035Z,3.50
2022-09-07T12:12:30.012Z,3.38
2022-09-07T12:15:09.684Z,3.08
2022-09-07T12:17:48.230Z,4.05
2022-09-07T12:20:16.006Z,3.65
2022-09-07T12:23:05.803Z,4.95
2022-09-07T12:25:34.131Z,3.92
2022-09-07T12:28:00.631Z,5.43
2022-09-07T12:30:26.871Z,5.15
2022-09-07T12:32:54.199Z,4.00
2022-09-07T12:35:27.126Z,4.97
2022-09-07T12:38:18.659Z,4.70
2022-09-07T12:40:58.723Z,4.68
2022-09-07T12:43:27.755Z,4.28
2022-09-07T12:45:54.441Z,5.35
2022-09-07T12:48:53.127Z,4.90
2022-09-07T12:54:37.394Z,3.80
2022-09-07T12:57:29.761Z,4.40
2022-09-07T13:00:21.037Z,4.72
2022-09-07T13:09:23.930Z,3.88
2022-09-07T13:11:50.366Z,5.25
2022-09-07T13:14:24.314Z,6.63
2022-09-07T13:17:29.015Z,4.72
2022-09-07T13:19:55.259Z,4.07
2022-09-07T13:22:30.811Z,3.75
2022-09-07T13:24:58.825Z,3.95
2022-09-07T13:27:50.396Z,4.07
2022-09-07T13:30:38.527Z,6.10
2022-09-07T13:33:34.340Z,4.78
2022-09-07T13:36:03.185Z,4.68
2022-09-07T13:38:31.139Z,4.78
2022-09-07T13:41:05.469Z,3.50
2022-09-07T13:43:32.010Z,3.22
2022-09-07T13:46:03.762Z,5.15
2022-09-07T13:48:37.025Z,5.55
2022-09-07T13:51:14.136Z,5.80
2022-09-07T13:53:55.534Z,6.38
2022-09-07T13:56:21.782Z,5.88
2022-09-07T13:58:51.162Z,4.40
2022-09-07T14:01:26.922Z,3.83
2022-09-07T14:03:59.188Z,4.55
2022-09-07T14:06:33.286Z,4.35
2022-09-07T14:09:13.155Z,4.03
2022-09-07T14:11:45.502Z,3.65
2022-09-07T14:14:28.995Z,3.45
2022-09-07T14:17:01.149Z,4.00
2022-09-07T14:19:39.644Z,3.72
2022-09-07T14:22:14.086Z,4.38
2022-09-07T14:24:46.573Z,3.63
2022-09-07T14:27:22.657Z,3.67
2022-09-07T14:29:49.123Z,4.00
2022-09-07T14:32:23.794Z,4.75
2022-09-07T14:34:50.973Z,3.60
2022-09-07T14:37:21.202Z,4.32
2022-09-07T14:39:49.781Z,4.85
2022-09-07T14:42:22.962Z,4.97
2022-09-07T14:44:49.674Z,4.90
2022-09-07T14:47:29.221Z,6.13
2022-09-07T14:49:58.017Z,5.18
2022-09-07T14:52:35.752Z,4.78
2022-09-07T14:55:08.086Z,5.90
2022-09-07T14:57:34.379Z,4.80
2022-09-07T15:00:31.817Z,4.53
2022-09-07T15:02:58.173Z,5.00
2022-09-07T15:05:29.077Z,6.03
2022-09-07T15:07:57.411Z,6.03
2022-09-07T15:10:23.937Z,5.75
2022-09-07T15:12:55.708Z,5.18
2022-09-07T15:15:37.447Z,5.00
2022-09-07T15:18:25.428Z,4.88
2022-09-07T15:20:52.841Z,5.30
2022-09-07T15:23:19.647Z,5.90
2022-09-07T15:25:53.454Z,4.50
2022-09-07T15:34:10.983Z,4.38
2022-09-07T15:36:40.826Z,4.70
2022-09-07T15:39:10.943Z,4.38
2022-09-07T15:41:37.240Z,4.30
2022-09-07T15:44:05.162Z,4.15
2022-09-07T15:46:31.609Z,3.58
2022-09-07T15:48:57.910Z,4.03
2022-09-07T15:54:13.705Z,4.35
2022-09-07T15:56:43.012Z,3.92
2022-09-07T15:59:10.918Z,3.95
2022-09-07T16:01:53.157Z,4.93
2022-09-07T16:04:20.651Z,4.03
2022-09-07T16:06:49.839Z,3.88
2022-09-07T16:09:16.129Z,3.72
2022-09-07T16:11:42.416Z,3.72
2022-09-07T16:14:08.710Z,3.50
2022-09-07T16:19:21.358Z,3.65
2022-09-07T16:21:47.710Z,3.90
2022-09-07T16:24:14.177Z,3.25
2022-09-07T16:26:40.443Z,3.08
2022-09-07T16:29:06.743Z,2.90
2022-09-07T16:31:33.592Z,3.03
2022-09-07T16:34:01.984Z,2.97
2022-09-07T16:36:28.322Z,2.80
2022-09-07T16:39:00.261Z,2.45
2022-09-07T16:41:29.383Z,2.40
2022-09-07T16:43:56.206Z,2.25
2022-09-07T16:46:25.280Z,2.50
2022-09-07T16:48:52.287Z,2.83
2022-09-07T16:51:20.689Z,2.50
2022-09-07T16:53:49.099Z,2.13
2022-09-07T16:56:17.915Z,3.05
2022-09-07T16:58:52.904Z,2.67
2022-09-07T17:01:22.506Z,3.05
2022-09-07T17:03:49.756Z,2.75
2022-09-07T17:06:17.729Z,2.50
2022-09-07T17:08:44.088Z,2.40
2022-09-07T17:11:18.499Z,2.30
2022-09-07T17:13:45.074Z,2.42
2022-09-07T17:16:18.570Z,2.30
2022-09-07T17:21:37.183Z,2.60
2022-09-07T17:24:05.353Z,2.30
2022-09-07T17:26:32.101Z,2.00
2022-09-07T17:29:00.632Z,2.53
2022-09-07T17:34:16.907Z,1.92
2022-09-07T17:36:43.251Z,2.00
2022-09-07T17:39:18.932Z,2.40
2022-09-07T17:41:47.487Z,2.40
2022-09-07T17:44:13.838Z,2.00
2022-09-07T17:46:40.415Z,1.73
2022-09-07T17:49:06.727Z,1.90
2022-09-07T17:51:33.098Z,2.15
2022-09-07T17:54:01.751Z,1.98
2022-09-07T17:56:28.792Z,1.83
2022-09-07T18:00:10.593Z,2.00
2022-09-07T18:01:41.419Z,2.05
2022-09-07T18:04:09.206Z,2.20
2022-09-07T18:06:35.504Z,2.15
2022-09-07T18:09:04.158Z,2.10
2022-09-07T18:11:48.121Z,1.60
2022-09-07T18:16:43.540Z,1.90
2022-09-07T18:19:11.215Z,2.33
2022-09-07T18:21:38.164Z,2.65
2022-09-07T18:24:07.688Z,2.60
2022-09-07T18:26:36.406Z,2.20
2022-09-07T18:29:04.798Z,2.30
2022-09-07T18:31:33.267Z,2.78
2022-09-07T18:34:01.650Z,2.75
2022-09-07T18:36:29.097Z,3.08
2022-09-07T18:38:55.567Z,2.50
2022-09-07T18:41:22.083Z,2.42
2022-09-07T18:43:48.453Z,2.45
2022-09-07T18:46:17.136Z,2.13
2022-09-07T18:48:43.609Z,2.17
2022-09-07T18:51:10.772Z,2.70
2022-09-07T18:53:37.800Z,2.50
2022-09-07T18:56:07.922Z,3.50
2022-09-07T18:58:34.703Z,2.95
2022-09-07T19:01:06.777Z,2.70
2022-09-07T19:03:34.415Z,2.90
2022-09-07T19:06:03.290Z,3.05
2022-09-07T19:08:31.039Z,2.70
2022-09-07T19:11:04.462Z,2.92
2022-09-07T19:13:30.777Z,2.85
2022-09-07T19:16:04.254Z,2.90
2022-09-07T19:18:30.732Z,3.00
2022-09-07T19:21:02.201Z,3.05
2022-09-07T19:23:28.576Z,3.38
2022-09-07T19:25:57.913Z,3.13
2022-09-07T19:28:24.216Z,3.60
2022-09-07T19:30:50.519Z,3.30
2022-09-07T19:33:16.814Z,3.40
2022-09-07T19:35:43.111Z,3.85
2022-09-07T19:38:09.409Z,3.88
2022-09-07T19:40:35.727Z,3.80
2022-09-07T19:43:02.048Z,3.72
2022-09-07T19:45:28.344Z,4.72
2022-09-07T19:47:54.675Z,3.97
2022-09-07T19:50:20.975Z,3.80
2022-09-07T19:52:48.050Z,4.88
2022-09-07T19:55:14.989Z,3.95
2022-09-07T19:57:45.596Z,3.58
2022-09-07T20:00:12.614Z,3.63
2022-09-07T20:02:39.510Z,3.85
2022-09-07T20:05:06.246Z,3.25
2022-09-07T20:07:32.559Z,4.13
2022-09-07T20:09:58.849Z,3.75
2022-09-07T20:12:25.201Z,3.45
2022-09-07T20:14:51.539Z,4.63
2022-09-07T20:17:17.991Z,5.35
2022-09-07T20:19:44.298Z,5.07
2022-09-07T20:22:10.570Z,5.47
2022-09-07T20:24:36.872Z,5.57
2022-09-07T20:27:03.314Z,5.65
2022-09-07T20:29:30.250Z,5.72
2022-09-07T20:31:58.341Z,5.15
2022-09-07T20:34:25.509Z,5.05
2022-09-07T20:36:52.659Z,4.78
2022-09-07T20:39:19.566Z,4.35
2022-09-07T20:41:46.447Z,3.95
2022-09-07T20:44:12.798Z,4.10
2022-09-07T20:46:39.141Z,4.70
2022-09-07T20:49:05.969Z,4.57
2022-09-07T20:51:32.609Z,4.53
2022-09-07T20:53:59.357Z,4.40
2022-09-07T20:56:27.828Z,5.03
2022-09-07T20:58:59.245Z,5.00
2022-09-07T21:01:26.239Z,5.20
2022-09-07T21:03:54.542Z,4.82
2022-09-07T21:06:22.767Z,5.32
2022-09-07T21:08:50.295Z,4.90
2022-09-07T21:11:23.253Z,5.80
2022-09-07T21:14:15.699Z,5.80
2022-09-07T21:16:42.025Z,5.97
2022-09-07T21:19:09.648Z,5.65
2022-09-07T21:21:39.682Z,5.57
2022-09-07T21:24:06.994Z,4.80
2022-09-07T21:26:33.282Z,4.68
2022-09-07T21:29:02.160Z,4.53
2022-09-07T21:31:30.029Z,5.10
2022-09-07T21:33:59.239Z,5.50
2022-09-07T21:36:26.428Z,5.32
2022-09-07T21:38:53.340Z,5.18
2022-09-07T21:41:22.270Z,5.00
2022-09-07T21:43:48.613Z,5.57
2022-09-07T21:46:18.331Z,5.43
2022-09-07T21:48:45.796Z,6.03
2022-09-07T21:51:13.551Z,5.95
2022-09-07T21:53:39.936Z,5.50
2022-09-07T21:56:09.562Z,5.65
2022-09-07T21:58:35.977Z,6.15
2022-09-07T22:01:29.912Z,6.15
2022-09-07T22:04:01.893Z,5.63
2022-09-07T22:06:29.548Z,6.20
2022-09-07T22:08:55.923Z,5.70
2022-09-07T22:11:24.351Z,6.38
2022-09-07T22:13:57.925Z,7.10
2022-09-07T22:16:24.532Z,6.55
2022-09-07T22:18:50.985Z,6.30
2022-09-07T22:21:20.615Z,6.15
2022-09-07T22:23:49.801Z,6.68
2022-09-07T22:26:20.077Z,7.32
2022-09-07T22:28:46.792Z,6.80
2022-09-07T22:31:16.084Z,7.05
2022-09-07T22:33:43.622Z,7.00
2022-09-07T22:36:19.997Z,7.25
2022-09-07T22:38:48.383Z,6.53
2022-09-07T22:41:26.510Z,7.28
2022-09-07T22:43:53.121Z,7.88
2022-09-07T22:46:22.167Z,7.68
2022-09-07T22:48:48.859Z,7.55
2022-09-07T22:51:16.376Z,8.23
2022-09-07T22:53:43.582Z,9.23
2022-09-07T22:56:12.379Z,9.88
2022-09-07T22:58:39.126Z,10.60
2022-09-07T23:01:06.382Z,8.95
2022-09-07T23:03:34.667Z,8.15
2022-09-07T23:06:01.522Z,8.23
2022-09-07T23:08:28.057Z,8.48
2022-09-07T23:10:54.442Z,9.93
2022-09-07T23:13:21.114Z,9.60
2022-09-07T23:15:48.134Z,9.13
2022-09-07T23:18:20.622Z,8.23
2022-09-07T23:20:46.918Z,8.75
2022-09-07T23:23:13.488Z,8.05
2022-09-07T23:25:41.604Z,9.27
2022-09-07T23:28:11.366Z,10.07
2022-09-07T23:30:38.742Z,10.50
2022-09-07T23:33:05.033Z,9.27
2022-09-07T23:35:31.334Z,10.75
2022-09-07T23:37:57.624Z,11.10
2022-09-07T23:40:24.313Z,9.02
2022-09-07T23:42:50.644Z,9.23
2022-09-07T23:45:17.032Z,8.93
2022-09-07T23:47:43.346Z,9.32
2022-09-07T23:50:10.843Z,10.88
2022-09-07T23:52:37.146Z,9.98
2022-09-07T23:55:03.933Z,10.50
2022-09-07T23:57:31.276Z,9.32
2022-09-07T23:59:57.814Z,9.85
